createdAt,value
2017-11-09T00:00:04.311Z,99902.12
2017-11-09T00:02:32.796Z,99909.78
2017-11-09T00:05:05.933Z,99911.47
2017-11-09T00:07:33.447Z,99909.34
2017-11-09T00:10:00.939Z,99905.53
2017-11-09T00:12:28.404Z,99910.23
2017-11-09T00:14:56.045Z,99914.02
2017-11-09T00:17:23.547Z,99913.62
2017-11-09T00:19:51.033Z,99911.06
2017-11-09T00:22:18.518Z,99915.70
2017-11-09T00:24:45.965Z,99920.84
2017-11-09T00:27:13.431Z,99923.34
2017-11-09T00:29:40.906Z,99918.69
2017-11-09T00:32:08.402Z,99914.44
2017-11-09T00:34:35.894Z,99923.77
2017-11-09T00:37:03.362Z,99921.27
2017-11-09T00:39:30.827Z,99917.01
2017-11-09T00:41:58.313Z,99923.38
2017-11-09T00:44:25.806Z,99925.93
2017-11-09T00:46:54.707Z,99925.50
2017-11-09T00:49:22.169Z,99929.74
2017-11-09T00:51:49.665Z,99924.63
2017-11-09T00:54:17.152Z,99924.23
2017-11-09T00:56:44.619Z,99929.33
2017-11-09T00:59:12.172Z,99934.02
2017-11-09T01:01:39.630Z,99929.31
2017-11-09T01:04:07.103Z,99939.11
2017-11-09T01:06:34.595Z,99937.81
2017-11-09T01:09:02.064Z,99933.56
2017-11-09T01:11:29.533Z,99939.96
2017-11-09T01:13:57.016Z,99935.69
2017-11-09T01:16:24.528Z,99943.80
2017-11-09T01:18:52.038Z,99940.82
2017-11-09T01:21:19.519Z,99941.69
2017-11-09T01:23:47.001Z,99941.64
2017-11-09T01:26:14.575Z,99944.21
2017-11-09T01:28:42.058Z,99943.77
2017-11-09T01:31:09.531Z,99941.22
2017-11-09T01:33:37.017Z,99948.02
2017-11-09T01:36:04.501Z,99944.64
2017-11-09T01:38:32.045Z,99939.95
2017-11-09T01:40:59.544Z,99937.83
2017-11-09T01:43:27.068Z,99936.16
2017-11-09T01:45:54.545Z,99942.09
2017-11-09T01:48:22.028Z,99940.38
2017-11-09T01:50:49.552Z,99941.23
2017-11-09T01:53:17.045Z,99946.77
2017-11-09T01:55:44.526Z,99946.35
2017-11-09T01:58:11.997Z,99954.86
2017-11-09T02:00:40.532Z,99951.02
2017-11-09T02:03:08.040Z,99959.10
2017-11-09T02:05:35.532Z,99953.57
2017-11-09T02:08:03.216Z,99955.27
2017-11-09T02:10:30.696Z,99959.08
2017-11-09T02:12:58.165Z,99963.34
2017-11-09T02:15:25.649Z,99961.66
2017-11-09T02:17:53.130Z,99962.06
2017-11-09T02:20:20.649Z,99957.81
2017-11-09T02:22:48.122Z,99957.81
2017-11-09T02:25:15.621Z,99959.10
2017-11-09T02:27:43.102Z,99963.77
2017-11-09T02:30:10.601Z,99961.63
2017-11-09T02:32:38.074Z,99962.87
2017-11-09T02:35:05.601Z,99967.56
2017-11-09T02:37:33.083Z,99964.59
2017-11-09T02:40:00.564Z,99969.69
2017-11-09T02:42:28.070Z,99972.27
2017-11-09T02:44:58.174Z,99972.66
2017-11-09T02:47:25.667Z,99982.85
2017-11-09T02:49:53.165Z,99976.48
2017-11-09T02:52:20.638Z,99977.77
2017-11-09T02:54:48.127Z,99977.31
2017-11-09T02:57:15.598Z,99978.17
2017-11-09T02:59:43.113Z,99983.70
2017-11-09T03:02:10.575Z,99993.03
2017-11-09T03:04:38.082Z,99987.92
2017-11-09T03:07:07.263Z,99983.71
2017-11-09T03:09:34.733Z,99984.55
2017-11-09T03:12:02.221Z,99981.15
2017-11-09T03:14:30.560Z,99984.98
2017-11-09T03:16:58.023Z,99981.14
2017-11-09T03:19:25.513Z,99985.84
2017-11-09T03:21:52.969Z,99987.09
2017-11-09T03:24:20.426Z,99986.67
2017-11-09T03:26:47.907Z,99981.55
2017-11-09T03:29:15.364Z,99983.67
2017-11-09T03:31:42.837Z,99984.95
2017-11-09T03:34:10.652Z,99992.58
2017-11-09T03:36:39.263Z,99987.05
2017-11-09T03:39:06.748Z,99984.94
2017-11-09T03:41:34.277Z,99991.73
2017-11-09T03:44:01.735Z,99993.42
2017-11-09T03:46:29.228Z,99990.86
2017-11-09T03:48:56.698Z,99992.13
2017-11-09T03:51:24.229Z,99990.86
2017-11-09T03:53:51.702Z,99989.59
2017-11-09T03:56:19.196Z,99992.16
2017-11-09T03:58:46.717Z,99988.33
2017-11-09T04:01:14.190Z,99988.77
2017-11-09T04:03:41.676Z,99989.19
2017-11-09T04:06:09.148Z,99986.64
2017-11-09T04:08:36.603Z,99988.77
2017-11-09T04:11:04.139Z,99993.42
2017-11-09T04:13:31.634Z,99984.07
2017-11-09T04:15:59.100Z,99990.47
2017-11-09T04:18:26.600Z,99994.25
2017-11-09T04:20:54.068Z,99987.91
2017-11-09T04:23:21.548Z,99998.11
2017-11-09T04:25:49.055Z,100002.33
2017-11-09T04:28:16.520Z,100001.48
2017-11-09T04:30:43.989Z,99999.36
2017-11-09T04:33:11.473Z,100004.86
2017-11-09T04:35:38.961Z,100004.45
2017-11-09T04:38:06.428Z,99997.22
2017-11-09T04:40:33.902Z,99995.09
2017-11-09T04:43:01.363Z,99996.35
2017-11-09T04:45:28.843Z,99998.91
2017-11-09T04:47:56.306Z,99993.40
2017-11-09T04:50:23.775Z,99997.62
2017-11-09T04:52:51.254Z,100006.11
2017-11-09T04:55:18.800Z,100005.27
2017-11-09T04:57:46.290Z,100008.24
2017-11-09T05:00:13.782Z,100009.95
2017-11-09T05:02:41.254Z,100015.45
2017-11-09T05:05:08.736Z,100018.44
2017-11-09T05:07:36.211Z,100014.99
2017-11-09T05:10:05.049Z,100023.91
2017-11-09T05:12:32.511Z,100019.69
2017-11-09T05:15:00.161Z,100014.57
2017-11-09T05:17:27.625Z,100017.95
2017-11-09T05:19:55.098Z,100013.30
2017-11-09T05:22:22.579Z,100013.30
2017-11-09T05:24:50.101Z,100012.43
2017-11-09T05:27:17.573Z,100012.88
2017-11-09T05:29:45.056Z,100001.83
2017-11-09T05:32:12.566Z,100013.70
2017-11-09T05:34:40.047Z,100011.95
2017-11-09T05:37:07.518Z,100003.91
2017-11-09T05:39:35.093Z,100005.16
2017-11-09T05:42:02.594Z,100007.32
2017-11-09T05:44:30.085Z,100009.84
2017-11-09T05:46:57.615Z,100014.52
2017-11-09T05:49:25.075Z,100012.38
2017-11-09T05:51:52.555Z,100017.47
2017-11-09T05:54:20.035Z,100015.70
2017-11-09T05:56:47.521Z,100021.63
2017-11-09T05:59:15.000Z,100026.31
2017-11-09T06:01:42.540Z,100024.65
2017-11-09T06:04:10.008Z,100032.33
2017-11-09T06:06:39.973Z,100039.11
2017-11-09T06:09:07.530Z,100037.53
2017-11-09T06:11:34.986Z,100040.04
2017-11-09T06:14:02.476Z,100045.94
2017-11-09T06:16:29.963Z,100057.42
2017-11-09T06:18:57.427Z,100060.38
2017-11-09T06:21:24.907Z,100061.64
2017-11-09T06:23:52.469Z,100054.89
2017-11-09T06:26:19.933Z,100054.92
2017-11-09T06:28:47.392Z,100060.86
2017-11-09T06:31:14.885Z,100068.56
2017-11-09T06:33:42.352Z,100068.55
2017-11-09T06:36:09.939Z,100071.52
2017-11-09T06:38:37.418Z,100066.90
2017-11-09T06:41:04.917Z,100079.20
2017-11-09T06:43:32.415Z,100079.67
2017-11-09T06:45:59.929Z,100080.92
2017-11-09T06:48:27.571Z,100085.59
2017-11-09T06:50:55.302Z,100087.72
2017-11-09T06:53:22.777Z,100091.55
2017-11-09T06:55:50.322Z,100091.11
2017-11-09T06:58:17.795Z,100097.05
2017-11-09T07:00:45.288Z,100100.08
2017-11-09T07:03:12.740Z,100104.34
2017-11-09T07:05:40.235Z,100112.02
2017-11-09T07:08:07.715Z,100107.37
2017-11-09T07:10:35.189Z,100109.50
2017-11-09T07:13:02.655Z,100113.32
2017-11-09T07:15:30.247Z,100115.46
2017-11-09T07:17:57.709Z,100121.84
2017-11-09T07:20:25.181Z,100128.27
2017-11-09T07:22:52.691Z,100127.85
2017-11-09T07:25:20.225Z,100124.47
2017-11-09T07:27:47.761Z,100126.18
2017-11-09T07:30:15.256Z,100123.64
2017-11-09T07:32:42.715Z,100124.90
2017-11-09T07:35:10.186Z,100129.59
2017-11-09T07:37:37.663Z,100127.46
2017-11-09T07:40:05.134Z,100124.50
2017-11-09T07:42:32.687Z,100126.19
2017-11-09T07:45:00.745Z,100126.21
2017-11-09T07:47:28.211Z,100133.01
2017-11-09T07:49:55.678Z,100135.56
2017-11-09T07:52:23.179Z,100128.31
2017-11-09T07:54:50.661Z,100129.18
2017-11-09T07:57:18.138Z,100126.61
2017-11-09T07:59:45.606Z,100128.74
2017-11-09T08:02:13.089Z,100135.12
2017-11-09T08:04:40.542Z,100135.11
2017-11-09T08:07:08.139Z,100131.70
2017-11-09T08:09:35.625Z,100134.70
2017-11-09T08:12:03.124Z,100130.84
2017-11-09T08:14:30.613Z,100134.64
2017-11-09T08:16:58.258Z,100138.08
2017-11-09T08:19:25.735Z,100135.48
2017-11-09T08:21:53.212Z,100140.15
2017-11-09T08:24:22.740Z,100139.30
2017-11-09T08:26:52.511Z,100140.98
2017-11-09T08:29:22.522Z,100134.97
2017-11-09T08:31:53.363Z,100141.30
2017-11-09T08:34:20.848Z,100139.60
2017-11-09T08:36:49.689Z,100151.59
2017-11-09T08:39:17.175Z,100146.48
2017-11-09T08:41:44.682Z,100151.11
2017-11-09T08:44:12.199Z,100150.21
2017-11-09T08:46:39.662Z,100152.30
2017-11-09T08:49:07.407Z,100155.21
2017-11-09T08:51:34.905Z,100154.75
2017-11-09T08:54:02.387Z,100156.02
2017-11-09T08:56:29.917Z,100161.49
2017-11-09T08:58:57.520Z,100162.75
2017-11-09T09:01:24.981Z,100161.41
2017-11-09T09:03:52.450Z,100162.30
2017-11-09T09:06:19.935Z,100170.38
2017-11-09T09:08:47.414Z,100161.79
2017-11-09T09:11:14.914Z,100169.39
2017-11-09T09:13:42.490Z,100170.62
2017-11-09T09:16:09.951Z,100173.69
2017-11-09T09:18:37.836Z,100169.37
2017-11-09T09:21:06.808Z,100165.54
2017-11-09T09:23:34.322Z,100169.42
2017-11-09T09:29:23.485Z,100170.60
2017-11-09T09:31:50.966Z,100168.75
2017-11-09T09:37:27.923Z,100175.11
2017-11-09T09:39:58.922Z,100174.69
2017-11-09T09:42:26.502Z,100173.38
2017-11-09T09:44:53.993Z,100165.31
2017-11-09T09:47:21.472Z,100170.81
2017-11-09T09:49:48.976Z,100169.00
2017-11-09T09:52:16.483Z,100168.47
2017-11-09T09:54:43.969Z,100167.95
2017-11-09T09:57:11.455Z,100168.35
2017-11-09T09:59:38.991Z,100168.17
2017-11-09T10:02:06.509Z,100163.47
2017-11-09T10:04:34.019Z,100165.18
2017-11-09T10:07:01.511Z,100161.36
2017-11-09T10:09:29.022Z,100164.78
2017-11-09T10:11:56.511Z,100163.08
2017-11-09T10:14:23.994Z,100158.41
2017-11-09T10:16:51.502Z,100160.97
2017-11-09T10:19:18.966Z,100158.34
2017-11-09T10:21:46.473Z,100158.67
2017-11-09T10:24:13.936Z,100158.08
2017-11-09T10:26:41.387Z,100157.32
2017-11-09T10:29:08.870Z,100155.08
2017-11-09T10:31:36.390Z,100154.58
2017-11-09T10:34:03.861Z,100154.05
2017-11-09T10:36:31.391Z,100149.19
2017-11-09T10:38:58.884Z,100148.65
2017-11-09T10:41:26.344Z,100147.75
2017-11-09T10:43:53.875Z,100147.59
2017-11-09T10:46:21.351Z,100139.38
2017-11-09T10:48:48.817Z,100136.17
2017-11-09T10:51:16.332Z,100136.85
2017-11-09T10:53:43.862Z,100139.07
2017-11-09T10:56:11.342Z,100142.70
2017-11-09T10:58:38.830Z,100138.42
2017-11-09T11:01:09.530Z,100136.67
2017-11-09T11:03:37.031Z,100131.14
2017-11-09T11:06:04.524Z,100132.19
2017-11-09T11:08:32.018Z,100128.85
2017-11-09T11:10:59.549Z,100126.20
2017-11-09T11:13:27.052Z,100124.91
2017-11-09T11:15:54.555Z,100127.94
2017-11-09T11:18:22.054Z,100132.95
2017-11-09T11:20:49.568Z,100126.77
2017-11-09T11:23:17.086Z,100127.39
2017-11-09T11:25:44.559Z,100128.08
2017-11-09T11:28:12.093Z,100128.41
2017-11-09T11:30:39.834Z,100128.34
2017-11-09T11:33:07.356Z,100130.48
2017-11-09T11:35:34.886Z,100121.66
2017-11-09T11:38:02.361Z,100114.54
2017-11-09T11:40:29.853Z,100116.53
2017-11-09T11:42:57.358Z,100121.66
2017-11-09T11:45:24.824Z,100117.53
2017-11-09T11:48:02.954Z,100120.20
2017-11-09T11:50:30.437Z,100118.06
2017-11-09T11:52:57.926Z,100122.45
2017-11-09T11:55:25.448Z,100124.53
2017-11-09T11:57:52.951Z,100125.63
2017-11-09T12:00:20.449Z,100129.13
2017-11-09T12:02:47.995Z,100129.13
2017-11-09T12:05:16.423Z,100119.16
2017-11-09T12:07:43.916Z,100118.43
2017-11-09T12:10:11.401Z,100117.06
2017-11-09T12:12:39.675Z,100115.91
2017-11-09T12:15:07.179Z,100113.34
2017-11-09T12:17:34.740Z,100109.88
2017-11-09T12:20:02.221Z,100109.59
2017-11-09T12:22:32.347Z,100110.95
2017-11-09T12:24:59.868Z,100114.00
2017-11-09T12:27:28.079Z,100119.61
2017-11-09T12:29:55.554Z,100115.03
2017-11-09T12:32:23.055Z,100112.46
2017-11-09T12:34:50.560Z,100111.09
2017-11-09T12:37:18.057Z,100113.27
2017-11-09T12:39:45.551Z,100109.72
2017-11-09T12:42:13.058Z,100107.11
2017-11-09T12:44:40.599Z,100107.75
2017-11-09T12:47:08.154Z,100104.45
2017-11-09T12:49:35.881Z,100100.69
2017-11-09T12:52:03.402Z,100103.22
2017-11-09T12:54:31.119Z,100098.94
2017-11-09T12:56:59.594Z,100103.08
2017-11-09T12:59:27.067Z,100102.74
2017-11-09T13:01:54.574Z,100104.58
2017-11-09T13:04:22.055Z,100098.05
2017-11-09T13:06:49.630Z,100091.25
2017-11-09T13:09:17.123Z,100097.50
2017-11-09T13:11:44.717Z,100098.57
2017-11-09T13:14:12.203Z,100100.10
2017-11-09T13:16:39.730Z,100091.23
2017-11-09T13:19:07.306Z,100095.12
2017-11-09T13:21:34.850Z,100097.03
2017-11-09T13:24:02.415Z,100102.94
2017-11-09T13:26:30.346Z,100099.16
2017-11-09T13:28:57.841Z,100103.98
2017-11-09T13:31:25.401Z,100101.94
2017-11-09T13:33:52.901Z,100097.30
2017-11-09T13:36:20.425Z,100101.42
2017-11-09T13:38:47.999Z,100100.72
2017-11-09T13:41:15.480Z,100097.12
2017-11-09T13:43:43.011Z,100093.73
2017-11-09T13:46:10.853Z,100096.63
2017-11-09T13:48:39.592Z,100098.96
2017-11-09T13:51:07.121Z,100100.08
2017-11-09T13:53:34.928Z,100104.32
2017-11-09T13:56:02.531Z,100099.01
2017-11-09T13:58:30.027Z,100102.88
2017-11-09T14:00:57.529Z,100105.10
2017-11-09T14:03:25.021Z,100094.74
2017-11-09T14:05:52.508Z,100091.02
2017-11-09T14:08:20.006Z,100098.27
2017-11-09T14:10:47.486Z,100100.27
2017-11-09T14:13:15.005Z,100096.42
2017-11-09T14:15:42.583Z,100104.67
2017-11-09T14:18:10.060Z,100103.16
2017-11-09T14:20:37.548Z,100105.26
2017-11-09T14:23:05.049Z,100109.18
2017-11-09T14:25:32.579Z,100109.55
2017-11-09T14:28:00.087Z,100110.05
2017-11-09T14:30:27.588Z,100106.62
2017-11-09T14:32:55.080Z,100110.48
2017-11-09T14:35:22.562Z,100112.59
2017-11-09T14:37:52.575Z,100111.38
2017-11-09T14:40:22.770Z,100113.56
2017-11-09T14:42:50.245Z,100111.05
2017-11-09T14:45:17.739Z,100119.17
2017-11-09T14:47:45.221Z,100118.80
2017-11-09T14:50:12.715Z,100117.53
2017-11-09T14:52:40.232Z,100117.98
2017-11-09T14:57:41.640Z,100106.95
2017-11-09T15:00:09.116Z,100109.95
2017-11-09T15:02:36.592Z,100104.41
2017-11-09T15:05:04.108Z,100105.70
2017-11-09T15:07:31.641Z,100112.95
2017-11-09T15:09:59.191Z,100111.13
2017-11-09T15:12:26.684Z,100114.22
2017-11-09T15:14:54.198Z,100116.81
2017-11-09T15:17:21.722Z,100120.68
2017-11-09T15:19:49.215Z,100118.55
2017-11-09T15:22:16.702Z,100123.26
2017-11-09T15:24:47.096Z,100121.55
2017-11-09T15:27:14.641Z,100126.20
2017-11-09T15:29:42.150Z,100126.64
2017-11-09T15:32:11.469Z,100129.21
2017-11-09T15:34:38.958Z,100128.77
2017-11-09T15:37:06.578Z,100139.06
2017-11-09T15:39:34.056Z,100141.55
2017-11-09T15:42:01.546Z,100141.58
2017-11-09T15:44:29.139Z,100153.97
2017-11-09T15:46:57.375Z,100150.53
2017-11-09T15:49:24.907Z,100156.94
2017-11-09T15:51:52.400Z,100156.53
2017-11-09T15:54:19.885Z,100164.23
2017-11-09T15:56:47.368Z,100157.40
2017-11-09T15:59:14.863Z,100160.01
2017-11-09T16:01:42.329Z,100161.25
2017-11-09T16:04:09.855Z,100155.27
2017-11-09T16:06:38.380Z,100164.67
2017-11-09T16:09:05.873Z,100161.70
2017-11-09T16:11:33.381Z,100158.30
2017-11-09T16:14:00.887Z,100171.09
2017-11-09T16:16:28.515Z,100170.64
2017-11-09T16:18:56.006Z,100165.09
2017-11-09T16:21:23.483Z,100163.39
2017-11-09T16:23:53.789Z,100158.73
2017-11-09T16:26:21.278Z,100165.96
2017-11-09T16:28:48.749Z,100171.50
2017-11-09T16:31:16.232Z,100174.49
2017-11-09T16:33:43.733Z,100172.35
2017-11-09T16:36:11.203Z,100171.52
2017-11-09T16:38:38.703Z,100180.87
2017-11-09T16:41:06.189Z,100185.16
2017-11-09T16:43:33.658Z,100186.86
2017-11-09T16:46:01.169Z,100181.73
2017-11-09T16:48:29.220Z,100188.56
2017-11-09T16:50:56.931Z,100198.79
2017-11-09T16:53:24.399Z,100188.11
2017-11-09T16:55:55.799Z,100184.25
2017-11-09T16:58:23.300Z,100180.42
2017-11-09T17:00:50.804Z,100183.86
2017-11-09T17:03:18.301Z,100184.23
2017-11-09T17:05:45.807Z,100182.14
2017-11-09T17:08:13.298Z,100186.42
2017-11-09T17:10:42.687Z,100188.55
2017-11-09T17:13:10.189Z,100181.28
2017-11-09T17:15:37.673Z,100181.71
2017-11-09T17:21:00.422Z,100182.17
2017-11-09T17:23:27.910Z,100171.05
2017-11-09T17:25:55.403Z,100191.53
2017-11-09T17:28:22.905Z,100184.22
2017-11-09T17:30:50.416Z,100184.28
2017-11-09T17:33:17.901Z,100181.76
2017-11-09T17:35:45.371Z,100191.12
2017-11-09T17:38:12.870Z,100192.81
2017-11-09T17:40:40.351Z,100182.14
2017-11-09T17:43:08.019Z,100184.28
2017-11-09T17:45:35.501Z,100190.72
2017-11-09T17:48:02.973Z,100186.84
2017-11-09T17:50:30.521Z,100185.57
2017-11-09T17:52:58.021Z,100189.84
2017-11-09T17:55:25.521Z,100189.84
2017-11-09T17:57:52.997Z,100196.25
2017-11-09T18:00:20.505Z,100199.63
2017-11-09T18:02:48.001Z,100200.48
2017-11-09T18:05:15.500Z,100206.87
2017-11-09T18:07:43.020Z,100202.63
2017-11-09T18:10:10.501Z,100204.77
2017-11-09T18:12:38.485Z,100201.38
2017-11-09T18:15:05.991Z,100202.24
2017-11-09T18:17:33.468Z,100205.65
2017-11-09T18:20:00.946Z,100210.35
2017-11-09T18:22:28.578Z,100215.02
2017-11-09T18:24:56.038Z,100217.59
2017-11-09T18:27:23.493Z,100211.20
2017-11-09T18:29:50.992Z,100212.48
2017-11-09T18:32:18.477Z,100213.77
2017-11-09T18:34:46.050Z,100220.16
2017-11-09T18:37:13.531Z,100220.57
2017-11-09T18:39:41.046Z,100214.63
2017-11-09T18:42:08.533Z,100221.45
2017-11-09T18:44:36.043Z,100222.25
2017-11-09T18:47:03.529Z,100219.30
2017-11-09T18:49:31.004Z,100231.24
2017-11-09T18:51:58.514Z,100225.71
2017-11-09T18:54:26.022Z,100230.81
2017-11-09T18:56:54.752Z,100230.80
2017-11-09T18:59:24.126Z,100232.97
2017-11-09T19:01:51.686Z,100235.53
2017-11-09T19:04:19.170Z,100238.94
2017-11-09T19:06:46.718Z,100238.50
2017-11-09T19:09:14.242Z,100239.75
2017-11-09T19:11:41.720Z,100244.48
2017-11-09T19:14:09.211Z,100251.70
2017-11-09T19:16:36.730Z,100249.57
2017-11-09T19:19:04.297Z,100253.41
2017-11-09T19:21:31.927Z,100254.66
2017-11-09T19:23:59.416Z,100254.69
2017-11-09T19:26:28.510Z,100255.09
2017-11-09T19:28:57.512Z,100250.00
2017-11-09T19:31:25.004Z,100255.12
2017-11-09T19:33:52.611Z,100250.02
2017-11-09T19:36:20.114Z,100250.00
2017-11-09T19:38:47.651Z,100253.41
2017-11-09T19:41:15.169Z,100257.23
2017-11-09T19:43:42.679Z,100254.26
2017-11-09T19:46:10.156Z,100243.61
2017-11-09T19:48:41.115Z,100247.88
2017-11-09T19:51:08.608Z,100239.36
2017-11-09T19:53:36.130Z,100240.65
2017-11-09T19:56:03.657Z,100240.22
2017-11-09T19:58:31.188Z,100233.80
2017-11-09T20:00:58.712Z,100250.44
2017-11-09T20:03:26.249Z,100236.34
2017-11-09T20:05:53.763Z,100241.04
2017-11-09T20:08:21.247Z,100241.50
2017-11-09T20:10:48.720Z,100241.91
2017-11-09T20:13:16.352Z,100233.80
2017-11-09T20:15:43.813Z,100238.49
2017-11-09T20:18:11.293Z,100238.52
2017-11-09T20:20:38.782Z,100241.50
2017-11-09T20:23:06.247Z,100237.64
2017-11-09T20:25:33.767Z,100243.19
2017-11-09T20:28:01.286Z,100236.36
2017-11-09T20:30:28.831Z,100232.98
2017-11-09T20:32:58.840Z,100234.23
2017-11-09T20:35:26.325Z,100234.66
2017-11-09T20:37:59.406Z,100232.97
2017-11-09T20:40:27.807Z,100236.80
2017-11-09T20:42:55.295Z,100231.23
2017-11-09T20:45:22.778Z,100228.69
2017-11-09T20:47:50.257Z,100238.48
2017-11-09T20:50:21.470Z,100234.23
2017-11-09T20:52:48.951Z,100230.37
2017-11-09T20:55:16.478Z,100230.39
2017-11-09T20:57:43.963Z,100234.63
2017-11-09T21:00:11.521Z,100229.11
2017-11-09T21:02:39.097Z,100229.52
2017-11-09T21:05:06.623Z,100234.22
2017-11-09T21:07:34.120Z,100241.89
2017-11-09T21:10:01.639Z,100225.25
2017-11-09T21:12:29.176Z,100230.39
2017-11-09T21:14:57.903Z,100229.54
2017-11-09T21:17:25.651Z,100239.78
2017-11-09T21:19:53.227Z,100238.95
2017-11-09T21:22:20.750Z,100234.69
2017-11-09T21:24:48.279Z,100235.10
2017-11-09T21:27:15.828Z,100244.45
2017-11-09T21:29:43.358Z,100245.77
2017-11-09T21:32:10.880Z,100242.35
2017-11-09T21:34:38.430Z,100240.63
2017-11-09T21:37:06.104Z,100244.46
2017-11-09T21:39:33.614Z,100241.48
2017-11-09T21:42:01.142Z,100243.63
2017-11-09T21:44:29.632Z,100240.19
2017-11-09T21:46:58.574Z,100247.05
2017-11-09T21:49:26.101Z,100247.05
2017-11-09T21:51:53.607Z,100256.42
2017-11-09T21:54:21.119Z,100252.14
2017-11-09T21:56:48.701Z,100251.72
2017-11-09T21:59:16.200Z,100244.00
2017-11-09T22:01:43.711Z,100252.98
2017-11-09T22:04:11.208Z,100252.14
2017-11-09T22:06:42.736Z,100252.12
2017-11-09T22:09:10.240Z,100255.98
2017-11-09T22:11:37.779Z,100253.02
2017-11-09T22:14:05.288Z,100252.58
2017-11-09T22:16:32.795Z,100251.28
2017-11-09T22:19:00.293Z,100258.97
2017-11-09T22:21:27.921Z,100254.73
2017-11-09T22:23:55.490Z,100260.23
2017-11-09T22:26:22.994Z,100261.08
2017-11-09T22:28:50.485Z,100261.09
2017-11-09T22:31:17.967Z,100259.41
2017-11-09T22:33:45.474Z,100254.67
2017-11-09T22:36:12.984Z,100254.27
2017-11-09T22:38:40.492Z,100247.89
2017-11-09T22:41:08.064Z,100244.89
2017-11-09T22:43:35.619Z,100253.84
2017-11-09T22:46:03.153Z,100245.77
2017-11-09T22:48:30.654Z,100248.75
2017-11-09T22:51:01.458Z,100251.73
2017-11-09T22:53:28.962Z,100253.86
2017-11-09T22:55:56.483Z,100250.03
2017-11-09T22:58:24.012Z,100241.92
2017-11-09T23:00:51.998Z,100245.78
2017-11-09T23:03:19.497Z,100241.08
2017-11-09T23:05:47.040Z,100239.80
2017-11-09T23:08:14.568Z,100240.67
2017-11-09T23:10:42.087Z,100240.23
2017-11-09T23:13:10.386Z,100237.24
2017-11-09T23:15:37.930Z,100234.27
2017-11-09T23:18:05.455Z,100240.23
2017-11-09T23:20:32.936Z,100234.23
2017-11-09T23:23:00.468Z,100235.52
2017-11-09T23:25:28.054Z,100238.06
2017-11-09T23:27:55.601Z,100231.70
2017-11-09T23:30:23.127Z,100232.98
2017-11-09T23:32:50.666Z,100234.26
2017-11-09T23:35:18.151Z,100239.81
2017-11-09T23:37:45.681Z,100230.42
2017-11-09T23:40:13.216Z,100235.11
2017-11-09T23:42:43.604Z,100232.14
2017-11-09T23:45:11.139Z,100229.95
2017-11-09T23:47:38.653Z,100232.52
2017-11-09T23:50:06.150Z,100228.28
2017-11-09T23:52:33.642Z,100227.45
2017-11-09T23:55:01.155Z,100235.92
2017-11-09T23:57:28.736Z,100233.40
2017-11-09T23:59:56.312Z,100222.76
